Latest Weather Observations for Lucas Heights

IDN60801

Issued at 2:03 am EST Saturday 5 September 2015 (issued every 30 minutes, with the page automatically refreshed every 10 minutes)

About weather observations | Map of weather stations | Latest weather observations for NSW | Other Formats
Station Details ID: 066023 Name: LUCAS HEIGHTS AWS Lat: -34.05 Lon: 150.98 Height: 140.0 m
Data from the previous 72 hours. | See also: Recent months for locations in New South Wales
Date/Time
EST
Temp
°C
App
Temp
°C
Dew
Point
Rel
Hum
%
Delta-T
°C
Wind Press
QNH
hPa
Press
MSL
hPa
Rain
since 9 am
mm
Dir
 
Spd
km/h
Gust
km/h
Spd
kts
Gust
kts
05/01:45am 9.6 7.6 6.9 83 1.3 W 7 9 4 5 1021.5 - 0.0
05/01:30am 9.5 7.4 6.7 83 1.3 WSW 7 9 4 5 1021.6 - 0.0
05/01:15am 9.8 7.7 6.8 81 1.4 WSW 7 7 4 4 1021.6 - 0.0
05/01:00am 10.4 8.5 7.4 82 1.4 WSW 7 9 4 5 1021.7 - 0.0
05/12:45am 10.7 8.5 7.7 82 1.5 W 9 9 5 5 1021.8 - 0.0
05/12:30am 10.5 8.6 7.4 81 1.5 WSW 7 9 4 5 1022.0 - 0.0
05/12:15am 10.7 8.7 7.2 79 1.7 SW 7 9 4 5 1022.1 - 0.0
05/12:00am 10.9 9.0 7.4 79 1.7 SW 7 9 4 5 1022.2 - 0.0
 
Date/Time
EST
Temp
°C
App
Temp
°C
Dew
Point
Rel
Hum
%
Delta-T
°C
Wind Press
QNH
hPa
Press
MSL
hPa
Rain
since 9 am
mm
Dir
 
Spd
km/h
Gust
km/h
Spd
kts
Gust
kts
04/11:45pm 11.0 9.1 7.4 78 1.7 SW 7 9 4 5 1022.3 - 0.0
04/11:30pm 11.5 9.6 7.6 77 1.9 WSW 7 9 4 5 1022.4 - 0.0
04/11:15pm 12.1 10.3 7.8 75 2.1 WSW 7 9 4 5 1022.4 - 0.0
04/11:00pm 13.0 12.0 8.7 75 2.2 W 4 7 2 4 1022.5 - 0.0
04/10:45pm 12.9 11.9 9.0 77 2.0 W 4 6 2 3 1022.5 - 0.0
04/10:30pm 12.5 12.2 8.8 78 1.9 CALM 0 2 0 1 1022.6 - 0.0
04/10:15pm 12.3 11.6 8.5 77 1.9 SE 2 4 1 2 1022.6 - 0.0
04/10:00pm 12.3 11.2 8.5 77 1.9 ESE 4 4 2 2 1022.5 - 0.0
04/09:45pm 12.3 11.2 8.3 76 2.0 SE 4 4 2 2 1022.5 - 0.0
04/09:30pm 12.4 11.3 8.3 76 2.0 SE 4 7 2 4 1022.3 - 0.0
04/09:15pm 12.6 11.5 8.5 76 2.1 ESE 4 6 2 3 1022.3 - 0.0
04/09:00pm 12.8 11.3 8.6 75 2.1 ESE 6 7 3 4 1022.3 - 0.0
04/08:45pm 12.9 11.8 8.6 75 2.2 ESE 4 4 2 2 1022.3 - 0.0
04/08:30pm 12.9 11.3 8.2 73 2.3 ESE 6 7 3 4 1022.3 - 0.0
04/08:15pm 13.2 11.4 8.1 71 2.5 ESE 7 7 4 4 1022.3 - 0.0
04/08:00pm 13.6 11.9 8.3 70 2.7 ESE 7 9 4 5 1022.2 - 0.0
04/07:45pm 13.6 11.9 8.3 70 2.7 ESE 7 9 4 5 1022.1 - 0.0
04/07:30pm 13.3 11.5 8.1 71 2.6 ESE 7 9 4 5 1022.1 - 0.0
04/07:15pm 13.5 11.9 8.2 70 2.7 ESE 6 9 3 5 1022.0 - 0.0
04/07:00pm 13.5 11.8 8.2 70 2.7 SE 7 11 4 6 1021.8 - 0.0
04/06:45pm 13.6 11.8 8.1 69 2.7 ESE 7 13 4 7 1021.6 - 0.0
04/06:30pm 13.8 12.1 8.4 70 2.7 SE 7 11 4 6 1021.4 - 0.0
04/06:15pm 13.8 12.1 8.4 70 2.7 ESE 7 9 4 5 1021.3 - 0.0
04/06:00pm 14.0 11.9 8.4 69 2.8 ESE 9 13 5 7 1021.1 - 0.0
04/05:45pm 14.2 12.5 8.4 68 2.9 SE 7 13 4 7 1021.0 - 0.0
04/05:30pm 14.5 12.0 8.4 67 3.1 SE 11 17 6 9 1020.8 - 0.0
04/05:15pm 14.9 12.8 8.3 64 3.3 SE 9 15 5 8 1020.7 - 0.0
04/05:00pm 15.0 12.1 8.1 63 3.5 SSE 13 22 7 12 1020.7 - 0.0
04/04:45pm 15.3 12.4 8.1 62 3.6 SSE 13 19 7 10 1020.7 - 0.0
04/04:30pm 15.4 12.1 7.9 61 3.8 SE 15 20 8 11 1020.6 - 0.0
04/04:15pm 15.3 12.3 7.7 60 3.8 SSE 13 19 7 10 1020.6 - 0.0
04/04:00pm 15.6 12.2 7.7 59 4.0 SSE 15 22 8 12 1020.6 - 0.0
04/03:45pm 15.8 13.6 7.9 59 4.0 SSE 9 19 5 10 1020.6 - 0.0
04/03:30pm 16.2 13.2 7.5 56 4.4 SSE 13 19 7 10 1020.5 - 0.0
04/03:15pm 16.5 12.7 7.4 55 4.6 SSE 17 24 9 13 1020.5 - 0.0
04/03:00pm 16.7 13.0 7.8 55 4.5 SE 17 28 9 15 1020.5 - 0.0
04/02:45pm 16.1 12.7 7.5 56 4.3 SSE 15 26 8 14 1020.5 - 0.0
04/02:30pm 16.5 13.4 7.4 55 4.6 SSE 13 22 7 12 1020.6 - 0.0
04/02:15pm 17.0 13.6 7.5 53 4.8 SE 15 28 8 15 1020.6 - 0.0
04/02:00pm 16.4 12.1 6.9 53 4.7 SSE 19 28 10 15 1020.6 - 0.0
04/01:45pm 16.7 12.4 6.9 52 4.9 SSE 19 28 10 15 1020.8 - 0.0
04/01:30pm 17.4 13.2 7.3 51 5.1 SSE 19 30 10 16 1020.9 - 0.0
04/01:15pm 17.2 13.0 7.6 53 4.9 S 19 28 10 15 1021.0 - 0.0
04/01:00pm 16.7 11.5 7.2 53 4.8 S 24 33 13 18 1021.1 - 0.0
04/12:45pm 16.6 11.8 7.5 55 4.6 S 22 33 12 18 1021.3 - 0.0
04/12:30pm 16.8 11.7 7.6 54 4.7 SSE 24 37 13 20 1021.4 - 0.0
04/12:15pm 16.9 11.5 8.1 56 4.5 S 26 37 14 20 1021.4 - 0.0
04/12:00pm 16.5 11.9 8.1 57 4.3 S 22 37 12 20 1021.6 - 0.0
04/11:45am 16.7 12.1 8.2 57 4.3 S 22 33 12 18 1021.8 - 0.0
04/11:30am 16.3 11.6 7.9 57 4.3 SSE 22 37 12 20 1021.9 - 0.0
04/11:15am 16.6 11.7 8.5 58 4.2 S 24 37 13 20 1022.0 - 0.0
04/11:00am 16.3 11.4 8.6 60 4.0 S 24 39 13 21 1022.1 - 0.0
04/10:45am 16.2 10.5 8.3 59 4.0 S 28 39 15 21 1022.1 - 0.0
04/10:30am 16.1 12.1 8.9 62 3.7 S 20 37 11 20 1022.0 - 0.0
04/10:15am 15.8 10.9 8.6 62 3.7 S 24 35 13 19 1022.0 - 0.0
04/10:00am 15.6 11.2 8.9 64 3.5 S 22 39 12 21 1022.0 - 0.0
04/09:45am 15.1 10.6 8.6 65 3.3 S 22 43 12 23 1022.0 - 0.0
04/09:30am 15.0 10.5 8.6 65 3.3 S 22 39 12 21 1021.9 - 0.0
04/09:15am 15.2 10.0 8.9 66 3.2 S 26 44 14 24 1021.7 - 0.0
04/09:00am 14.8 9.7 9.3 69 2.8 S 26 41 14 22 1021.5 - 2.1
04/08:45am 14.1 9.7 9.0 71 2.6 S 22 37 12 20 1021.4 - 2.1
04/08:30am 13.7 9.7 8.9 73 2.4 S 20 33 11 18 1021.2 - 2.1
04/08:15am 13.4 8.6 9.0 75 2.2 S 24 37 13 20 1021.0 - 2.1
04/08:00am 13.3 8.6 9.1 76 2.1 S 24 37 13 20 1020.9 - 2.1
04/07:45am 13.1 8.0 9.3 78 1.9 S 26 43 14 23 1020.7 - 2.1
04/07:30am 12.8 8.5 9.4 80 1.7 S 22 33 12 18 1020.3 - 2.1
04/07:15am 12.6 8.3 9.5 81 1.6 S 22 33 12 18 1020.0 - 2.1
04/07:00am 12.4 8.7 9.5 82 1.5 S 19 33 10 18 1020.0 - 2.1
04/06:45am 12.3 9.0 9.6 83 1.4 SSW 17 26 9 14 1019.9 - 2.1
04/06:30am 12.1 8.4 9.5 84 1.3 S 19 32 10 17 1019.5 - 2.1
04/06:15am 12.0 8.1 9.5 85 1.3 SSW 20 41 11 22 1019.3 - 2.1
04/06:00am 11.9 8.0 9.4 85 1.3 S 20 33 11 18 1019.2 - 2.1
04/05:45am 11.7 7.4 9.2 85 1.3 S 22 32 12 17 1018.9 - 2.1
04/05:30am 11.8 8.4 9.2 84 1.3 S 17 26 9 14 1018.8 - 2.1
04/05:15am 12.0 8.7 9.4 84 1.3 S 17 30 9 16 1018.6 - 1.9
04/05:00am 11.9 8.6 9.4 85 1.3 SSW 17 28 9 15 1018.2 - 1.9
04/04:45am 11.8 7.9 9.3 85 1.3 S 20 33 11 18 1018.0 - 1.9
04/04:30am 11.9 8.0 9.4 85 1.3 S 20 32 11 17 1017.8 - 1.9
04/04:15am 12.0 8.1 9.5 85 1.3 S 20 32 11 17 1017.7 - 1.9
04/04:00am 11.8 7.9 9.3 85 1.3 S 20 32 11 17 1017.5 - 1.7
04/03:45am 11.5 8.8 8.9 84 1.3 SSW 13 19 7 10 1017.5 - 1.7
04/03:30am 11.7 9.0 9.0 83 1.4 SSW 13 20 7 11 1017.4 - 1.3
04/03:15am 11.6 8.1 8.9 83 1.4 SSW 17 22 9 12 1017.2 - 0.8
04/03:00am 12.2 9.3 9.5 83 1.4 SSW 15 28 8 15 1017.0 - 0.8
04/02:45am 11.9 8.1 9.2 83 1.4 SSW 19 30 10 16 1016.8 - 0.8
04/02:30am 11.6 7.8 8.9 83 1.4 SW 19 24 10 13 1016.7 - 0.8
04/02:15am 11.7 7.8 8.8 82 1.5 SW 19 24 10 13 1016.6 - 0.8
04/02:00am 11.9 8.4 8.9 82 1.5 SW 17 24 9 13 1016.5 - 0.8
04/01:45am 11.9 8.0 8.8 81 1.6 SSW 19 26 10 14 1016.4 - 0.6
04/01:30am 11.6 7.4 8.3 80 1.6 SW 20 24 11 13 1016.3 - 0.6
04/01:15am 11.7 7.1 8.1 78 1.8 SW 22 28 12 15 1016.1 - 0.6
04/01:00am 12.0 7.4 8.2 77 1.9 SW 22 30 12 16 1015.8 - 0.4
04/12:45am 12.1 7.2 8.4 78 1.8 SW 24 39 13 21 1015.5 - 0.4
04/12:30am 12.1 7.9 8.1 76 2.0 SW 20 30 11 16 1015.4 - 0.4
04/12:15am 12.7 9.1 8.4 75 2.1 SSW 17 28 9 15 1015.1 - 0.4
04/12:00am 12.8 8.3 8.7 76 2.1 SSW 22 33 12 18 1014.7 - 0.4
 
Date/Time
EST
Temp
°C
App
Temp
°C
Dew
Point
Rel
Hum
%
Delta-T
°C
Wind Press
QNH
hPa
Press
MSL
hPa
Rain
since 9 am
mm
Dir
 
Spd
km/h
Gust
km/h
Spd
kts
Gust
kts
03/11:45pm 12.7 8.2 8.4 75 2.1 S 22 37 12 20 1014.4 - 0.4
03/11:30pm 12.8 8.3 8.4 74 2.2 SSW 22 39 12 21 1014.4 - 0.4
03/11:15pm 12.7 8.1 8.3 74 2.2 SSW 22 30 12 16 1014.2 - 0.4
03/11:00pm 12.9 8.3 8.2 73 2.3 SW 22 33 12 18 1014.1 - 0.4
03/10:45pm 12.7 7.4 8.3 74 2.2 SW 26 35 14 19 1014.0 - 0.4
03/10:30pm 12.5 7.9 8.3 75 2.1 SW 22 30 12 16 1014.0 - 0.4
03/10:15pm 12.2 7.6 8.3 77 1.9 SW 22 32 12 17 1013.9 - 0.4
03/10:00pm 12.0 7.4 8.0 76 2.0 SW 22 30 12 16 1013.8 - 0.4
03/09:45pm 12.1 6.7 7.8 75 2.1 SW 26 37 14 20 1013.7 - 0.4
03/09:30pm 12.5 7.0 7.6 72 2.4 SW 26 37 14 20 1013.7 - 0.2
03/09:15pm 13.2 8.4 7.5 68 2.8 SW 22 33 12 18 1013.4 - 0.2
03/09:00pm 13.6 8.8 7.3 65 3.1 SW 22 33 12 18 1012.9 - 0.2
03/08:45pm 13.9 8.7 7.2 64 3.3 SW 24 39 13 21 1012.6 - 0.2
03/08:30pm 13.9 9.1 7.2 64 3.3 SW 22 39 12 21 1012.4 - 0.2
03/08:15pm 14.0 9.2 7.2 63 3.3 SW 22 33 12 18 1012.1 - 0.2
03/08:00pm 14.0 8.7 7.0 62 3.4 SW 24 39 13 21 1011.8 - 0.2
03/07:45pm 14.1 8.8 6.9 62 3.5 SW 24 37 13 20 1011.5 - 0.2
03/07:30pm 14.2 9.3 6.7 60 3.7 SW 22 33 12 18 1011.2 - 0.2
03/07:15pm 14.3 9.0 6.6 60 3.7 SW 24 37 13 20 1010.9 - 0.2
03/07:00pm 14.4 9.0 6.4 58 3.9 SW 24 35 13 19 1010.7 - 0.2
03/06:45pm 14.3 9.3 6.4 59 3.8 SW 22 35 12 19 1010.5 - 0.2
03/06:30pm 14.3 9.9 6.4 59 3.8 SW 19 30 10 16 1010.3 - 0.2
03/06:15pm 14.4 9.9 6.3 58 3.9 WSW 19 28 10 15 1010.0 - 0.2
03/06:00pm 14.6 9.5 6.2 57 4.1 SW 22 37 12 20 1009.8 - 0.2
03/05:45pm 14.8 8.6 6.0 55 4.2 SW 28 43 15 23 1009.3 - 0.2
03/05:30pm 15.0 8.8 6.0 55 4.4 SW 28 41 15 22 1008.9 - 0.2
03/05:15pm 15.3 9.4 6.0 54 4.5 SW 26 43 14 23 1008.4 - 0.2
03/05:00pm 15.6 10.1 6.0 53 4.7 SW 24 39 13 21 1008.0 - 0.2
03/04:45pm 15.6 9.7 5.7 51 4.8 SW 26 46 14 25 1007.6 - 0.2
03/04:30pm 15.9 9.2 5.6 50 5.0 SW 30 43 16 23 1007.2 - 0.2
03/04:15pm 16.5 10.8 5.0 46 5.5 SW 24 43 13 23 1007.0 - 0.2
03/04:00pm 17.1 11.7 4.6 43 6.0 SW 22 33 12 18 1006.8 - 0.2
03/03:45pm 17.2 10.2 4.2 42 6.2 SW 30 43 16 23 1006.6 - 0.2
03/03:30pm 17.4 11.1 3.5 39 6.5 SW 26 41 14 22 1006.4 - 0.2
03/03:15pm 17.9 11.1 3.0 37 6.9 SW 28 39 15 21 1006.1 - 0.2
03/03:00pm 17.6 11.1 2.8 37 6.8 SW 26 37 14 20 1005.9 - 0.2
03/02:45pm 18.2 12.5 2.8 35 7.1 WSW 22 33 12 18 1005.6 - 0.2
03/02:30pm 18.4 12.0 3.0 36 7.2 WSW 26 37 14 20 1005.5 - 0.2
03/02:15pm 18.2 11.8 3.0 36 7.1 WSW 26 43 14 23 1005.4 - 0.2
03/02:00pm 18.2 11.5 3.5 37 6.9 WSW 28 41 15 22 1005.3 - 0.2
03/01:45pm 17.7 12.2 3.9 40 6.5 WSW 22 44 12 24 1005.3 - 0.2
03/01:30pm 18.3 13.6 5.3 42 6.3 WSW 19 32 10 17 1005.3 - 0.2
03/01:15pm 17.4 12.5 5.2 44 5.9 WSW 20 30 11 16 1005.3 - 0.2
03/01:00pm 17.7 11.7 5.3 44 6.0 W 26 39 14 21 1005.4 - 0.2
03/12:45pm 17.2 11.3 5.7 46 5.6 W 26 41 14 22 1005.5 - 0.2
03/12:30pm 16.6 10.2 5.4 47 5.4 W 28 41 15 22 1005.5 - 0.2
03/12:15pm 16.7 9.9 5.3 47 5.5 W 30 43 16 23 1005.7 - 0.2
03/12:00pm 16.4 10.9 5.8 49 5.2 WSW 24 41 13 22 1005.8 - 0.2
03/11:45am 16.3 11.7 6.3 51 4.9 W 20 44 11 24 1005.9 - 0.2
03/11:30am 16.0 10.5 5.9 51 4.9 WSW 24 37 13 20 1006.1 - 0.2
03/11:15am 16.0 10.6 8.0 59 4.1 W 26 43 14 23 1006.1 - 0.2
03/11:00am 15.4 12.4 9.3 67 3.2 W 15 24 8 13 1006.1 - 0.0
03/10:45am 15.5 11.8 9.4 67 3.2 W 19 24 10 13 1006.1 - 0.0
03/10:30am 15.4 12.1 9.5 68 3.1 W 17 26 9 14 1006.0 - 0.0
03/10:15am 15.1 11.3 9.2 68 3.0 WSW 19 28 10 15 1005.9 - 0.0
03/10:00am 15.2 12.4 9.9 70 2.8 W 15 28 8 15 1005.8 - 0.0
03/09:45am 14.8 12.8 10.1 73 2.5 W 11 19 6 10 1005.8 - 0.0
03/09:30am 14.0 12.3 9.7 75 2.2 W 9 15 5 8 1005.8 - 0.0
03/09:15am 13.6 11.4 9.5 76 2.1 W 11 17 6 9 1005.9 - 0.0
03/09:00am 13.4 11.2 9.5 77 2.0 W 11 19 6 10 1005.9 - 2.5
03/08:45am 13.1 10.5 9.5 79 1.8 W 13 19 7 10 1005.9 - 2.5
03/08:30am 12.8 9.5 9.7 81 1.6 WSW 17 22 9 12 1005.7 - 2.5
03/08:15am 12.4 9.5 9.7 83 1.4 WSW 15 22 8 12 1005.6 - 2.5
03/08:00am 11.9 8.6 9.6 86 1.2 WSW 17 20 9 11 1005.4 - 2.5
03/07:45am 11.0 7.6 9.0 87 1.0 WSW 17 20 9 11 1005.3 - 2.5
03/07:30am 10.2 6.2 8.2 87 1.0 WSW 19 20 10 11 1005.1 - 2.5
03/07:15am 9.3 6.2 7.2 87 1.0 WSW 13 19 7 10 1004.9 - 2.5
03/07:00am 9.1 6.7 6.9 86 1.0 WSW 9 11 5 6 1004.8 - 2.5
03/06:45am 9.6 7.3 7.5 87 1.0 W 9 13 5 7 1004.7 - 2.5
03/06:30am 9.4 6.7 7.2 86 1.0 W 11 13 6 7 1004.6 - 2.5
03/06:15am 9.2 6.4 7.1 87 1.0 W 11 13 6 7 1004.6 - 2.5
03/06:00am 8.9 6.4 6.7 86 1.0 W 9 13 5 7 1004.5 - 2.5
03/05:45am 9.4 7.4 7.2 86 1.0 W 7 9 4 5 1004.6 - 2.5
03/05:30am 9.7 7.4 7.5 86 1.1 W 9 15 5 8 1004.7 - 2.5
03/05:15am 9.7 7.4 7.5 86 1.1 WNW 9 13 5 7 1004.8 - 2.5
03/05:00am 10.0 7.8 7.7 86 1.1 WNW 9 13 5 7 1004.6 - 2.5
03/04:45am 9.8 7.5 7.5 85 1.1 NNW 9 11 5 6 1004.6 - 2.5
03/04:30am 10.1 8.3 7.8 86 1.1 N 7 9 4 5 1004.6 - 2.5
03/04:15am 10.3 8.5 8.0 86 1.1 N 7 9 4 5 1005.0 - 2.5
03/04:00am 10.4 8.3 8.1 86 1.1 NNE 9 13 5 7 1005.2 - 2.5
03/03:45am 10.2 7.2 7.9 86 1.1 NE 13 17 7 9 1005.2 - 2.5
03/03:30am 10.2 7.6 7.8 85 1.2 NE 11 15 6 8 1005.5 - 2.5
03/03:15am 10.4 8.2 8.0 85 1.2 ENE 9 13 5 7 1005.7 - 2.5
03/03:00am 10.3 8.5 7.9 85 1.2 E 7 9 4 5 1005.9 - 2.5
03/02:45am 10.2 8.0 7.8 85 1.2 SE 9 13 5 7 1005.7 - 2.5
03/02:30am 10.3 8.1 7.8 84 1.2 SSE 9 13 5 7 1006.5 - 2.5
03/02:15am 10.4 8.8 7.8 84 1.3 ESE 6 13 3 7 1007.1 - 2.5
03/02:00am 10.5 9.6 7.8 83 1.3 S 2 4 1 2 1007.8 - 2.1
03/01:45am 10.5 9.6 7.8 83 1.3 SE 2 4 1 2 1008.0 - 2.1
03/01:30am 10.5 10.0 7.7 83 1.4 CALM 0 4 0 2 1008.2 - 1.9
03/01:15am 10.7 9.1 7.8 82 1.4 NW 6 7 3 4 1008.7 - 1.5
03/01:00am 10.8 8.6 7.7 81 1.5 N 9 13 5 7 1008.7 - 1.3
03/12:45am 10.9 7.1 7.5 79 1.6 NNW 17 22 9 12 1009.2 - 0.9
03/12:30am 10.8 8.8 7.1 78 1.8 N 7 19 4 10 1008.7 - 0.8
03/12:15am 11.0 9.5 6.8 75 2.0 SSE 4 9 2 5 1008.3 - 0.8
03/12:00am 12.0 9.3 7.2 72 2.3 W 11 22 6 12 1009.2 - 0.6
 
Date/Time
EST
Temp
°C
App
Temp
°C
Dew
Point
Rel
Hum
%
Delta-T
°C
Wind Press
QNH
hPa
Press
MSL
hPa
Rain
since 9 am
mm
Dir
 
Spd
km/h
Gust
km/h
Spd
kts
Gust
kts
02/11:45pm 13.0 7.3 6.9 66 3.0 W 26 33 14 18 1010.0 - 0.2
02/11:30pm 14.1 10.2 7.1 62 3.4 WNW 17 32 9 17 1009.1 - 0.0
02/11:15pm 13.5 11.1 6.9 64 3.2 N 9 13 5 7 1008.4 - 0.0
02/11:00pm 13.2 10.7 6.7 64 3.1 N 9 13 5 7 1008.5 - 0.0
02/10:45pm 13.1 10.9 6.4 64 3.2 N 7 13 4 7 1008.7 - 0.0
02/10:30pm 13.3 10.8 6.5 63 3.3 N 9 15 5 8 1009.1 - 0.0
02/10:15pm 13.3 10.0 6.6 64 3.2 N 13 19 7 10 1009.4 - 0.0
02/10:00pm 13.7 10.8 6.5 62 3.5 NNE 11 17 6 9 1009.3 - 0.0
02/09:45pm 14.1 10.5 6.7 61 3.6 NNE 15 20 8 11 1009.2 - 0.0
02/09:30pm 14.5 11.6 6.7 59 3.8 NNE 11 17 6 9 1009.7 - 0.0
02/09:15pm 14.5 11.3 6.7 59 3.8 NNE 13 17 7 9 1010.0 - 0.0
02/09:00pm 14.5 10.9 6.8 60 3.8 NNE 15 17 8 9 1010.3 - 0.0
02/08:45pm 14.5 11.3 6.8 60 3.8 NNE 13 17 7 9 1010.5 - 0.0
02/08:30pm 14.6 11.8 6.8 59 3.8 NE 11 17 6 9 1010.6 - 0.0
02/08:15pm 14.6 11.8 7.0 60 3.7 NE 11 17 6 9 1010.7 - 0.0
02/08:00pm 14.6 11.5 7.2 61 3.7 NNE 13 20 7 11 1010.8 - 0.0
02/07:45pm 14.5 11.0 7.4 62 3.5 NNE 15 22 8 12 1010.9 - 0.0
02/07:30pm 14.2 10.8 7.6 64 3.3 NNE 15 22 8 12 1011.1 - 0.0
02/07:15pm 14.1 11.1 7.6 65 3.2 NNE 13 20 7 11 1011.1 - 0.0
02/07:00pm 14.1 11.1 7.5 64 3.3 NNE 13 19 7 10 1011.1 - 0.0
02/06:45pm 14.1 11.0 7.2 63 3.4 NE 13 19 7 10 1011.1 - 0.0
02/06:30pm 14.4 11.3 7.1 61 3.6 NE 13 19 7 10 1011.1 - 0.0
02/06:15pm 14.5 11.7 7.1 61 3.6 ENE 11 17 6 9 1011.2 - 0.0
02/06:00pm 14.8 12.0 7.1 60 3.8 NE 11 13 6 7 1011.4 - 0.0
02/05:45pm 15.3 12.6 7.2 58 4.0 NE 11 15 6 8 1011.3 - 0.0
02/05:30pm 16.0 13.2 7.0 55 4.5 NE 11 17 6 9 1011.3 - 0.0
02/05:15pm 16.8 13.6 6.9 52 4.9 NE 13 17 7 9 1011.3 - 0.0
02/05:00pm 17.4 14.2 6.7 49 5.3 NE 13 17 7 9 1011.5 - 0.0
02/04:45pm 17.9 14.8 5.5 44 6.1 NE 11 19 6 10 1011.5 - 0.0
02/04:30pm 18.2 14.8 3.9 38 6.8 - 11 20 6 11 1011.5 - 0.0
02/04:15pm 18.3 14.7 3.0 36 7.1 N 11 20 6 11 1011.4 - 0.0
02/04:00pm 18.3 15.2 1.6 32 7.6 N 7 17 4 9 1011.4 - 0.0
02/03:45pm 18.2 14.3 1.3 32 7.6 N 11 19 6 10 1011.5 - 0.0
02/03:30pm 18.3 14.2 2.5 35 7.3 - 13 22 7 12 1011.6 - 0.0
02/03:15pm 18.1 14.5 3.0 36 7.0 N 11 22 6 12 1011.7 - 0.0
02/03:00pm 18.3 15.1 3.3 37 7.0 NNE 9 19 5 10 1011.7 - 0.0
02/02:45pm 17.7 14.4 2.5 36 7.0 NNE 9 20 5 11 1012.0 - 0.0
02/02:30pm 17.7 13.6 2.2 35 7.1 N 13 20 7 11 1012.4 - 0.0
02/02:15pm 17.5 14.2 4.6 42 6.2 N 11 19 6 10 1012.8 - 0.0
02/02:00pm 17.0 12.8 3.9 41 6.2 - 15 22 8 12 1012.9 - 0.0
02/01:45pm 17.2 14.5 5.4 45 5.7 N 9 24 5 13 1013.1 - 0.0
02/01:30pm 16.6 13.5 5.4 47 5.4 NNE 11 20 6 11 1013.3 - 0.0
02/01:15pm 16.2 13.9 5.6 49 5.1 - 7 15 4 8 1013.7 - 0.0
02/01:00pm 15.5 12.7 5.1 50 5.0 N 9 17 5 9 1014.1 - 0.0
02/12:45pm 15.4 11.8 5.0 50 4.9 NNW 13 22 7 12 1014.5 - 0.0
02/12:30pm 15.2 12.0 5.0 50 4.8 NNW 11 20 6 11 1014.8 - 0.0
02/12:15pm 15.1 12.4 5.4 52 4.6 N 9 17 5 9 1015.1 - 0.0
02/12:00pm 14.6 11.7 4.9 52 4.6 NNW 9 15 5 8 1015.3 - 0.0
02/11:45am 14.6 11.7 4.5 50 4.7 NNW 9 17 5 9 1015.6 - 0.0
02/11:30am 14.4 11.5 4.7 52 4.5 NW 9 19 5 10 1016.1 - 0.0
02/11:15am 14.0 11.5 4.9 54 4.3 NW 7 13 4 7 1016.4 - 0.0
02/11:00am 13.4 10.9 4.7 55 4.0 WNW 7 17 4 9 1016.7 - 0.0
02/10:45am 12.5 9.1 3.8 55 3.9 WNW 11 17 6 9 1017.1 - 0.0
02/10:30am 12.6 9.3 4.7 58 3.6 WNW 11 17 6 9 1017.2 - 0.0
02/10:15am 12.5 8.9 4.9 60 3.5 WNW 13 19 7 10 1017.4 - 0.0
02/10:00am 12.5 8.8 4.4 58 3.7 W 13 17 7 9 1017.4 - 0.0
02/09:45am 12.4 9.0 4.2 57 3.7 W 11 15 6 8 1017.5 - 0.0
02/09:30am 12.8 9.5 4.3 56 3.9 W 11 15 6 8 1017.5 - 0.0
02/09:15am 13.1 9.8 4.3 55 4.0 W 11 15 6 8 1017.5 - 0.0
02/09:00am 13.1 10.2 4.5 56 4.0 W 9 13 5 7 1017.6 - 0.0
02/08:45am 13.3 10.7 4.1 53 4.2 W 7 13 4 7 1017.5 - 0.0
02/08:30am 12.9 10.2 5.8 62 3.4 WSW 9 13 5 7 1017.5 - 0.0
02/08:15am 11.4 8.8 6.2 70 2.5 WSW 9 13 5 7 1017.6 - 0.0
02/08:00am 10.5 7.8 5.8 72 2.2 SW 9 11 5 6 1017.4 - 0.0
02/07:45am 9.3 5.7 5.1 75 1.9 SW 13 15 7 8 1017.5 - 0.0
02/07:30am 8.5 5.2 4.5 76 1.8 SW 11 15 6 8 1017.5 - 0.0
02/07:15am 7.6 4.1 3.7 76 1.7 SW 11 13 6 7 1017.3 - 0.0
02/07:00am 7.4 3.5 3.4 76 1.7 SW 13 17 7 9 1017.3 - 0.0
02/06:45am 7.5 3.6 3.6 76 1.7 SW 13 17 7 9 1017.2 - 0.0
02/06:30am 7.2 2.5 3.4 77 1.6 SW 17 19 9 10 1017.1 - 0.0
02/06:15am 7.1 2.1 3.4 77 1.6 SW 19 20 10 11 1017.0 - 0.0
02/06:00am 7.0 3.1 3.5 78 1.5 SW 13 19 7 10 1016.9 - 0.0
02/05:45am 6.6 2.7 3.3 79 1.4 SSW 13 17 7 9 1016.8 - 0.0
02/05:30am 5.9 1.5 2.5 79 1.4 SSW 15 19 8 10 1016.5 - 0.0
02/05:15am 6.2 1.8 2.8 79 1.4 SSW 15 20 8 11 1016.3 - 0.0
02/05:00am 6.0 1.2 2.5 78 1.4 SSW 17 20 9 11 1016.2 - 0.0
02/04:45am 5.4 0.9 1.9 78 1.4 SSW 15 19 8 10 1016.1 - 0.0
02/04:30am 5.7 1.5 1.8 76 1.6 S 13 19 7 10 1016.1 - 0.0
02/04:15am 6.7 2.3 2.7 75 1.7 SW 15 17 8 9 1016.4 - 0.0
02/04:00am 7.3 2.7 3.5 77 1.6 SW 17 19 9 10 1016.4 - 0.0
02/03:45am 7.2 2.6 3.7 78 1.5 SW 17 19 9 10 1016.5 - 0.0
02/03:30am 6.7 2.0 3.4 79 1.4 SW 17 19 9 10 1016.5 - 0.0
02/03:15am 6.8 1.8 3.8 81 1.3 SW 19 22 10 12 1016.5 - 0.0
02/03:00am 5.6 0.8 2.7 81 1.2 SW 17 22 9 12 1016.7 - 0.0
02/02:45am 5.3 0.1 2.3 81 1.2 SW 19 19 10 10 1016.6 - 0.0
02/02:30am 5.1 0.6 2.1 81 1.2 SSW 15 17 8 9 1016.6 - 0.0
02/02:15am 5.4 0.5 2.3 80 1.3 SW 17 19 9 10 1016.7 - 0.0

Other Formats:

Comma delimited format used in spreadsheet applications
http://www.bom.gov.au/fwo/IDN60801/IDN60801.95757.axf

JavaScript Object Notation format (JSON) in row-major order
http://www.bom.gov.au/fwo/IDN60801/IDN60801.95757.json